ADDS METAR Data INFO
IDs: Format: Raw Decoded Include TAF

Data at: 1812 UTC 24 Nov 2017

KPSX 241753Z AUTO 20007KT CLR 21/08 A3002 RMK AO2 SLP165 T02060078 10211 20050 58013 $
KPSX 241553Z AUTO VRB04KT 10SM CLR 18/11 A3006 RMK AO2 SLP178 T01830106 $
KPSX 241453Z AUTO 35003KT 10SM CLR 14/12 A3006 RMK AO2 SLP178 T01390117 51010 $
KPSX 241353Z AUTO 32003KT CLR 07/07 A3005 RMK AO2 SLP175 T00720072 $
KPSX 241253Z AUTO 03003KT CLR 06/04 A3005 RMK AO2 SLP173 T00560044
KPSX 241153Z AUTO 03004KT CLR 05/04 A3003 RMK AO2 SLP168 T00500044 10078 20044 55003 $
KPSX 241053Z AUTO 01004KT CLR 05/04 A3003 RMK AO2 SLP167 T00500039 $
KPSX 240953Z AUTO 03003KT CLR 05/04 A3004 RMK AO2 SLP171 T00500039 $
KPSX 240853Z AUTO 03004KT CLR 06/04 A3004 RMK AO2 SLP172 T00560044 56013 $
KPSX 240753Z AUTO 00000KT 10SM CLR 07/06 A3004 RMK AO2 SLP173 T00670056
KPSX 240653Z AUTO 00000KT 10SM CLR 08/06 A3007 RMK AO2 SLP180 T00780061
KPSX 240553Z AUTO 00000KT 10SM CLR 08/06 A3008 RMK AO2 SLP185 T00780061 10144 20072 402060033 58008
KPSX 240453Z AUTO 00000KT 10SM CLR 08/04 A3009 RMK AO2 SLP188 T00830039
KPSX 240353Z AUTO 00000KT 10SM CLR 09/06 A3009 RMK AO2 SLP190 T00890056
KPSX 240253Z AUTO 09004KT 10SM CLR 10/04 A3010 RMK AO2 SLP193 T01000039 52006
KPSX 240153Z AUTO 04005KT 10SM CLR 11/03 A3010 RMK AO2 SLP192 T01060033
KPSX 240053Z AUTO 06003KT 10SM CLR 12/03 A3009 RMK AO2 SLP187 T01170033
KPSX 232353Z AUTO 36005KT 10SM CLR 14/03 A3009 RMK AO2 SLP187 T01440033 10206 20139 55000
KPSX 232253Z AUTO 36005KT 10SM CLR 18/03 A3008 RMK AO2 SLP187 T01780028
KPSX 232153Z AUTO 01006KT 10SM CLR 20/02 A3008 RMK AO2 SLP186 T02000017
KPSX 232053Z AUTO 35006KT 10SM CLR 20/01 A3009 RMK AO2 SLP187 T02000011 56029
KPSX 231953Z AUTO 35008KT 310V020 10SM CLR 20/02 A3011 RMK AO2 SLP194 T02000017
KPSX 231853Z AUTO 02008KT 10SM CLR 19/02 A3014 RMK AO2 SLP204 T01940017
KPSX 231753Z AUTO 35008KT 10SM CLR 18/02 A3017 RMK AO2 SLP216 T01830017 10183 20033 58013
KPSX 231653Z AUTO 02007KT 340V060 10SM CLR 17/04 A3020 RMK AO2 SLP227 T01670044
KPSX 231553Z AUTO VRB04KT 10SM CLR 14/05 A3021 RMK AO2 SLP229 T01440050
KPSX 231453Z AUTO 03007KT CLR 11/04 A3021 RMK AO2 SLP229 T01060044 51005 $
KPSX 231353Z AUTO 01006KT CLR 06/04 A3021 RMK AO2 SLP228 T00610039 $
KPSX 231253Z AUTO 01006KT CLR 03/03 A3020 RMK AO2 SLP224 T00330028 $
KPSX 231153Z AUTO 36006KT CLR 04/03 A3019 RMK AO2 SLP223 T00440033 10078 20044 55003 $
KPSX 231053Z AUTO 36006KT CLR 05/03 A3019 RMK AO2 SLP223 T00500033 $
KPSX 230953Z AUTO 35005KT 10SM CLR 06/04 A3019 RMK AO2 SLP223 T00560039
KPSX 230853Z AUTO 35007KT 10SM CLR 06/04 A3020 RMK AO2 SLP226 T00610044 56009
KPSX 230753Z AUTO 36006KT 10SM CLR 06/04 A3020 RMK AO2 SLP227 T00610044
KPSX 230653Z AUTO 36005KT 10SM CLR 07/04 A3021 RMK AO2 SLP230 T00670039